createdAt,value
2018-12-13T00:01:00.172Z,8.77
2018-12-13T00:03:29.173Z,9.27
2018-12-13T00:05:58.674Z,8.70
2018-12-13T00:08:27.842Z,9.30
2018-12-13T00:10:56.870Z,8.50
2018-12-13T00:13:26.056Z,10.67
2018-12-13T00:15:55.048Z,9.40
2018-12-13T00:18:24.117Z,9.10
2018-12-13T00:20:53.103Z,9.63
2018-12-13T00:23:22.376Z,8.93
2018-12-13T00:25:51.412Z,9.47
2018-12-13T00:28:20.588Z,9.50
2018-12-13T00:30:49.272Z,8.80
2018-12-13T00:33:18.783Z,9.63
2018-12-13T00:35:48.395Z,9.70
2018-12-13T00:38:17.391Z,9.87
2018-12-13T00:40:46.390Z,9.27
2018-12-13T00:43:15.401Z,9.70
2018-12-13T00:45:44.426Z,9.63
2018-12-13T00:48:13.452Z,9.00
2018-12-13T00:50:42.554Z,9.43
2018-12-13T00:53:11.552Z,10.00
2018-12-13T00:55:40.724Z,9.70
2018-12-13T00:58:09.736Z,10.73
2018-12-13T01:00:38.731Z,10.23
2018-12-13T01:03:07.757Z,9.80
2018-12-13T01:05:36.457Z,10.93
2018-12-13T01:08:05.590Z,11.27
2018-12-13T01:10:34.704Z,9.70
2018-12-13T01:13:04.604Z,10.30
2018-12-13T01:15:34.340Z,9.93
2018-12-13T01:18:03.489Z,10.27
2018-12-13T01:20:32.463Z,11.20
2018-12-13T01:23:01.526Z,10.80
2018-12-13T01:25:30.525Z,10.13
2018-12-13T01:27:59.243Z,10.03
2018-12-13T01:30:27.883Z,11.87
2018-12-13T01:32:57.000Z,11.10
2018-12-13T01:35:26.001Z,11.57
2018-12-13T01:37:55.000Z,11.03
2018-12-13T01:40:23.664Z,10.87
2018-12-13T01:42:52.307Z,11.53
2018-12-13T01:45:21.224Z,11.83
2018-12-13T01:47:50.240Z,11.23
2018-12-13T01:50:19.232Z,11.13
2018-12-13T01:52:48.441Z,11.63
2018-12-13T01:55:17.426Z,10.80
2018-12-13T01:57:46.496Z,10.27
2018-12-13T02:00:15.506Z,10.20
2018-12-13T02:02:44.561Z,9.67
2018-12-13T02:05:13.559Z,9.60
2018-12-13T02:07:42.588Z,8.00
2018-12-13T02:10:11.880Z,8.63
2018-12-13T02:12:40.923Z,7.97
2018-12-13T02:15:10.103Z,7.03
2018-12-13T02:17:39.355Z,6.43
2018-12-13T02:20:08.701Z,6.70
2018-12-13T02:22:37.929Z,6.77
2018-12-13T02:25:07.149Z,5.53
2018-12-13T02:27:36.386Z,6.07
2018-12-13T02:30:06.121Z,5.40
2018-12-13T02:32:35.305Z,5.23
2018-12-13T02:35:04.091Z,4.50
2018-12-13T02:37:33.044Z,5.50
2018-12-13T02:40:01.733Z,5.57
2018-12-13T02:42:30.636Z,5.70
2018-12-13T02:45:00.084Z,4.60
2018-12-13T02:47:28.691Z,4.53
2018-12-13T02:49:57.597Z,4.93
2018-12-13T02:52:26.875Z,4.57
2018-12-13T02:54:55.644Z,5.40
2018-12-13T02:57:24.300Z,5.03
2018-12-13T02:59:53.431Z,4.60
2018-12-13T03:02:23.319Z,5.23
2018-12-13T03:04:53.088Z,5.50
2018-12-13T03:07:22.130Z,5.63
2018-12-13T03:09:51.094Z,4.93
2018-12-13T03:12:19.826Z,5.77
2018-12-13T03:14:48.707Z,6.60
2018-12-13T03:17:17.739Z,6.13
2018-12-13T03:19:46.432Z,6.67
2018-12-13T03:22:15.410Z,4.63
2018-12-13T03:24:44.793Z,6.63
2018-12-13T03:27:13.816Z,6.23
2018-12-13T03:29:42.835Z,5.93
2018-12-13T03:32:12.045Z,6.47
2018-12-13T03:34:41.402Z,7.07
2018-12-13T03:37:10.540Z,7.63
2018-12-13T03:39:39.310Z,7.03
2018-12-13T03:42:08.177Z,5.37
2018-12-13T03:44:37.367Z,7.60
2018-12-13T03:47:06.555Z,7.87
2018-12-13T03:49:36.290Z,7.47
2018-12-13T03:52:05.424Z,8.43
2018-12-13T03:54:34.328Z,8.03
2018-12-13T03:57:03.683Z,7.67
2018-12-13T03:59:32.995Z,8.60
2018-12-13T04:02:01.956Z,7.50
2018-12-13T04:04:30.990Z,9.03
2018-12-13T04:07:00.377Z,9.53
2018-12-13T04:09:29.104Z,8.10
2018-12-13T04:11:58.003Z,8.53
2018-12-13T04:14:27.688Z,8.30
2018-12-13T04:16:56.884Z,8.77
2018-12-13T04:19:25.995Z,8.83
2018-12-13T04:21:54.946Z,9.10
2018-12-13T04:24:23.970Z,9.17
2018-12-13T04:26:52.925Z,9.30
2018-12-13T04:29:22.055Z,7.73
2018-12-13T04:31:50.683Z,8.97
2018-12-13T04:34:19.618Z,7.87
2018-12-13T04:36:48.644Z,8.67
2018-12-13T04:39:17.323Z,9.03
2018-12-13T04:41:46.213Z,8.10
2018-12-13T04:44:15.242Z,9.80
2018-12-13T04:46:44.257Z,7.67
2018-12-13T04:49:13.241Z,9.53
2018-12-13T04:51:42.364Z,8.67
2018-12-13T04:54:12.053Z,8.73
2018-12-13T04:56:40.901Z,8.53
2018-12-13T04:59:09.555Z,9.43
2018-12-13T05:01:38.156Z,8.97
2018-12-13T05:04:07.064Z,9.30
2018-12-13T05:06:36.208Z,10.07
2018-12-13T05:09:08.102Z,10.17
2018-12-13T05:11:37.383Z,10.37
2018-12-13T05:14:06.222Z,10.87
2018-12-13T05:16:35.116Z,10.27
2018-12-13T05:19:04.112Z,11.13
2018-12-13T05:21:33.225Z,9.87
2018-12-13T05:24:02.352Z,9.97
2018-12-13T05:26:31.308Z,10.40
2018-12-13T05:29:00.403Z,9.77
2018-12-13T05:31:29.464Z,9.80
2018-12-13T05:33:58.882Z,10.03
2018-12-13T05:36:27.546Z,9.53
2018-12-13T05:38:56.636Z,9.67
2018-12-13T05:41:25.860Z,10.90
2018-12-13T05:43:54.876Z,10.07
2018-12-13T05:46:23.900Z,10.80
2018-12-13T05:48:52.924Z,11.97
2018-12-13T05:51:21.922Z,12.20
2018-12-13T05:53:50.630Z,12.03
2018-12-13T05:56:19.492Z,12.67
2018-12-13T05:58:48.493Z,12.20
2018-12-13T06:01:17.536Z,12.00
2018-12-13T06:03:47.625Z,12.10
2018-12-13T06:06:16.348Z,12.30
2018-12-13T06:08:45.264Z,12.80
2018-12-13T06:11:13.946Z,11.90
2018-12-13T06:13:42.844Z,12.47
2018-12-13T06:16:11.852Z,13.33
2018-12-13T06:18:40.846Z,12.90
2018-12-13T06:21:11.921Z,13.50
2018-12-13T06:23:40.871Z,13.90
2018-12-13T06:26:09.873Z,13.70
2018-12-13T06:28:38.675Z,12.63
2018-12-13T06:31:07.700Z,12.50
2018-12-13T06:33:36.722Z,13.07
2018-12-13T06:36:05.740Z,12.97
2018-12-13T06:38:34.804Z,14.53
2018-12-13T06:41:04.048Z,8.47
2018-12-13T06:43:33.851Z,13.43
2018-12-13T06:46:03.784Z,14.33
2018-12-13T06:48:32.882Z,12.70
2018-12-13T06:51:01.993Z,14.50
2018-12-13T06:53:30.992Z,13.47
2018-12-13T06:55:59.676Z,14.07
2018-12-13T06:58:28.772Z,15.00
2018-12-13T07:00:57.808Z,11.83
2018-12-13T07:03:26.789Z,14.57
2018-12-13T07:05:56.543Z,14.90
2018-12-13T07:08:25.191Z,14.50
2018-12-13T07:10:54.558Z,14.40
2018-12-13T07:13:23.641Z,13.73
2018-12-13T07:15:52.735Z,15.50
2018-12-13T07:18:21.415Z,15.97
2018-12-13T07:20:50.306Z,13.33
2018-12-13T07:23:18.948Z,16.43
2018-12-13T07:25:47.615Z,15.00
2018-12-13T07:28:16.520Z,14.23
2018-12-13T07:30:45.505Z,14.37
2018-12-13T07:33:14.521Z,14.30
2018-12-13T07:35:43.501Z,15.03
2018-12-13T07:38:14.491Z,14.63
2018-12-13T07:40:43.649Z,14.23
2018-12-13T07:43:12.629Z,14.90
2018-12-13T07:45:41.625Z,13.47
2018-12-13T07:48:10.602Z,12.90
2018-12-13T07:50:39.696Z,11.07
2018-12-13T07:53:08.688Z,12.23
2018-12-13T07:55:37.973Z,13.43
2018-12-13T07:58:06.969Z,11.93
2018-12-13T08:00:35.952Z,12.40
2018-12-13T08:03:05.432Z,12.77
2018-12-13T08:05:34.477Z,13.07
2018-12-13T08:08:03.467Z,12.67
2018-12-13T08:10:32.721Z,13.07
2018-12-13T08:13:01.710Z,12.03
2018-12-13T08:15:30.724Z,12.10
2018-12-13T08:17:59.732Z,10.90
2018-12-13T08:20:29.212Z,12.73
2018-12-13T08:22:57.987Z,11.13
2018-12-13T08:25:26.900Z,12.00
2018-12-13T08:27:56.636Z,12.60
2018-12-13T08:30:25.818Z,9.73
2018-12-13T08:32:54.704Z,11.93
2018-12-13T08:35:23.619Z,12.33
2018-12-13T08:37:52.803Z,10.53
2018-12-13T08:40:22.575Z,11.07
2018-12-13T08:42:51.697Z,11.37
2018-12-13T08:45:20.788Z,11.17
2018-12-13T08:47:49.758Z,10.73
2018-12-13T08:50:18.809Z,10.37
2018-12-13T08:52:47.784Z,11.83
2018-12-13T08:55:16.841Z,9.83
2018-12-13T08:57:45.933Z,10.33
2018-12-13T09:00:14.900Z,10.33
2018-12-13T09:02:43.980Z,10.00
2018-12-13T09:05:12.703Z,9.00
2018-12-13T09:07:41.773Z,10.73
2018-12-13T09:10:10.958Z,10.17
2018-12-13T09:12:40.847Z,10.17
2018-12-13T09:15:10.166Z,10.17
2018-12-13T09:17:39.504Z,9.90
2018-12-13T09:20:08.919Z,9.57
2018-12-13T09:22:37.971Z,9.93
2018-12-13T09:25:06.881Z,10.50
2018-12-13T09:27:35.455Z,10.37
2018-12-13T09:30:05.427Z,11.40
2018-12-13T09:32:34.718Z,11.40
2018-12-13T09:35:04.232Z,11.93
2018-12-13T09:37:32.935Z,11.50
2018-12-13T09:40:01.829Z,11.40
2018-12-13T09:42:30.884Z,10.37
2018-12-13T09:44:59.900Z,10.90
2018-12-13T09:47:28.780Z,11.43
2018-12-13T09:49:58.324Z,11.23
2018-12-13T09:52:27.327Z,12.97
2018-12-13T09:54:55.975Z,11.30
2018-12-13T09:57:25.416Z,10.57
2018-12-13T09:59:54.618Z,11.57
2018-12-13T10:02:23.615Z,12.53
2018-12-13T10:04:52.365Z,11.57
2018-12-13T10:07:20.981Z,10.43
2018-12-13T10:09:50.184Z,10.83
2018-12-13T10:12:19.516Z,9.33
2018-12-13T10:14:48.464Z,11.10
2018-12-13T10:17:17.570Z,11.43
2018-12-13T10:19:46.968Z,10.87
2018-12-13T10:22:16.005Z,11.30
2018-12-13T10:24:45.010Z,9.03
2018-12-13T10:27:13.679Z,10.07
2018-12-13T10:29:43.383Z,11.37
2018-12-13T10:32:12.407Z,10.70
2018-12-13T10:34:41.456Z,11.33
2018-12-13T10:37:10.645Z,10.13
2018-12-13T10:39:44.594Z,10.37
2018-12-13T10:42:13.554Z,11.07
2018-12-13T10:44:43.218Z,10.30
2018-12-13T10:47:12.271Z,9.70
2018-12-13T10:49:41.202Z,8.50
2018-12-13T10:52:10.261Z,9.47
2018-12-13T10:54:39.394Z,8.87
2018-12-13T10:57:08.518Z,9.67
2018-12-13T10:59:37.570Z,9.40
2018-12-13T11:02:11.252Z,10.30
2018-12-13T11:04:40.329Z,8.77
2018-12-13T11:07:09.358Z,10.10
2018-12-13T11:09:38.087Z,8.20
2018-12-13T11:12:07.309Z,8.43
2018-12-13T11:14:36.364Z,7.77
2018-12-13T11:17:05.573Z,8.30
2018-12-13T11:19:34.348Z,9.47
2018-12-13T11:22:03.227Z,8.57
2018-12-13T11:24:32.293Z,8.60
2018-12-13T11:28:09.654Z,8.30
2018-12-13T11:30:39.012Z,6.20
2018-12-13T11:33:08.096Z,7.30
2018-12-13T11:35:36.980Z,7.77
2018-12-13T11:38:05.998Z,8.73
2018-12-13T11:40:35.207Z,8.70
2018-12-13T11:43:04.577Z,8.13
2018-12-13T11:45:33.555Z,9.00
2018-12-13T11:48:02.598Z,8.10
2018-12-13T11:50:31.700Z,9.30
2018-12-13T11:53:00.710Z,8.13
2018-12-13T11:55:37.509Z,9.17
2018-12-13T11:58:12.345Z,8.20
2018-12-13T12:00:41.320Z,7.90
2018-12-13T12:03:10.711Z,7.63
2018-12-13T12:05:39.387Z,8.17
2018-12-13T12:08:08.981Z,8.17
2018-12-13T12:10:39.727Z,8.27
2018-12-13T12:13:08.737Z,8.80
2018-12-13T12:15:37.998Z,7.33
2018-12-13T12:18:06.990Z,8.13
2018-12-13T12:20:41.265Z,7.90
2018-12-13T12:23:10.832Z,8.50
2018-12-13T12:25:40.122Z,7.00
2018-12-13T12:28:09.093Z,8.07
2018-12-13T12:30:38.692Z,6.70
2018-12-13T12:33:07.708Z,6.97
2018-12-13T12:35:36.708Z,7.63
2018-12-13T12:38:05.754Z,8.23
2018-12-13T12:40:34.968Z,7.40
2018-12-13T12:43:04.158Z,7.23
2018-12-13T12:45:33.188Z,7.07
2018-12-13T12:48:02.209Z,12.17
2018-12-13T12:50:31.212Z,7.70
2018-12-13T12:52:59.887Z,8.43
2018-12-13T12:55:28.814Z,8.73
2018-12-13T12:57:57.489Z,9.07
2018-12-13T13:00:26.471Z,7.97
2018-12-13T13:02:55.912Z,8.33
2018-12-13T13:05:25.633Z,7.70
2018-12-13T13:07:54.703Z,7.57
2018-12-13T13:10:23.759Z,7.20
2018-12-13T13:12:52.488Z,8.63
2018-12-13T13:15:21.446Z,7.73
2018-12-13T13:17:50.459Z,8.00
2018-12-13T13:20:19.556Z,8.07
2018-12-13T13:22:48.515Z,8.03
2018-12-13T13:25:17.253Z,7.53
2018-12-13T13:27:46.173Z,9.57
2018-12-13T13:30:14.870Z,9.70
2018-12-13T13:32:43.744Z,9.20
2018-12-13T13:35:12.775Z,8.73
2018-12-13T13:37:41.429Z,8.60
2018-12-13T13:40:10.502Z,8.30
2018-12-13T13:42:40.273Z,11.17
2018-12-13T13:45:09.112Z,10.07
2018-12-13T13:47:37.731Z,9.27
2018-12-13T13:50:07.201Z,10.73
2018-12-13T13:52:36.178Z,10.80
2018-12-13T13:55:05.512Z,10.30
2018-12-13T13:57:34.244Z,10.27
2018-12-13T14:00:03.715Z,10.63
2018-12-13T14:02:32.605Z,10.50
2018-12-13T14:05:02.294Z,11.57
2018-12-13T14:10:06.040Z,11.00
2018-12-13T14:12:35.072Z,12.00
2018-12-13T14:15:03.989Z,10.47
2018-12-13T14:17:33.014Z,12.60
2018-12-13T14:20:02.031Z,10.87
2018-12-13T14:22:31.012Z,8.30
2018-12-13T14:25:00.112Z,11.23
2018-12-13T14:27:29.107Z,11.33
2018-12-13T14:29:58.086Z,10.93
2018-12-13T14:32:27.075Z,11.13
2018-12-13T14:34:57.531Z,10.87
2018-12-13T14:37:26.752Z,10.50
2018-12-13T14:39:55.735Z,11.47
2018-12-13T14:42:24.893Z,12.80
2018-12-13T14:44:54.280Z,12.43
2018-12-13T14:47:22.972Z,12.03
2018-12-13T14:49:52.404Z,11.67
2018-12-13T14:52:21.136Z,12.07
2018-12-13T14:54:50.003Z,12.47
2018-12-13T14:57:19.010Z,12.47
2018-12-13T14:59:47.680Z,12.70
2018-12-13T15:02:16.608Z,12.13
2018-12-13T15:04:46.277Z,13.77
2018-12-13T15:07:15.301Z,11.60
2018-12-13T15:09:50.647Z,12.37
2018-12-13T15:12:15.031Z,12.23
2018-12-13T15:14:43.989Z,11.93
2018-12-13T15:17:13.049Z,13.90
2018-12-13T15:19:42.356Z,13.30
2018-12-13T15:22:11.044Z,11.63
2018-12-13T15:24:40.212Z,12.70
2018-12-13T15:27:09.230Z,12.17
2018-12-13T15:29:38.213Z,10.57
2018-12-13T15:32:06.954Z,12.17
2018-12-13T15:34:36.456Z,12.23
2018-12-13T15:37:05.597Z,12.70
2018-12-13T15:39:34.694Z,13.13
2018-12-13T15:42:05.583Z,13.13
2018-12-13T15:44:34.600Z,12.33
2018-12-13T15:47:03.736Z,13.37
2018-12-13T15:49:32.970Z,12.63
2018-12-13T15:52:01.751Z,13.40
2018-12-13T15:54:30.699Z,14.23
2018-12-13T15:56:59.354Z,12.37
2018-12-13T15:59:28.387Z,13.97
2018-12-13T16:01:57.440Z,13.77
2018-12-13T16:04:26.239Z,12.67
2018-12-13T16:06:55.142Z,12.60
2018-12-13T16:09:23.887Z,13.17
2018-12-13T16:11:52.975Z,13.00
2018-12-13T16:14:21.682Z,13.63
2018-12-13T16:16:51.248Z,14.07
2018-12-13T16:19:20.235Z,13.27
2018-12-13T16:21:49.234Z,12.57
2018-12-13T16:24:18.245Z,13.80
2018-12-13T16:26:47.212Z,14.67
2018-12-13T16:29:16.253Z,14.00
2018-12-13T16:31:45.298Z,15.30
2018-12-13T16:34:14.569Z,14.80
2018-12-13T16:36:43.313Z,12.93
2018-12-13T16:39:12.287Z,13.70
2018-12-13T16:41:41.344Z,12.33
2018-12-13T16:44:10.649Z,15.30
2018-12-13T16:46:39.367Z,13.10
2018-12-13T16:49:07.971Z,13.70
2018-12-13T16:51:37.086Z,11.73
2018-12-13T16:54:06.113Z,12.37
2018-12-13T16:56:34.815Z,13.77
2018-12-13T16:59:03.944Z,13.37
2018-12-13T17:01:33.764Z,12.90
2018-12-13T17:04:02.482Z,11.63
2018-12-13T17:06:31.128Z,12.40
2018-12-13T17:09:00.020Z,12.23
2018-12-13T17:11:29.168Z,12.73
2018-12-13T17:13:58.174Z,13.27
2018-12-13T17:16:27.448Z,12.03
2018-12-13T17:18:56.779Z,15.10
2018-12-13T17:21:25.532Z,13.27
2018-12-13T17:23:54.971Z,14.93
2018-12-13T17:26:23.904Z,14.90
2018-12-13T17:28:52.984Z,13.10
2018-12-13T17:31:21.970Z,14.83
2018-12-13T17:33:52.729Z,10.53
2018-12-13T17:36:21.458Z,14.00
2018-12-13T17:39:06.321Z,15.67
2018-12-13T17:41:35.334Z,14.23
2018-12-13T17:44:04.635Z,15.77
2018-12-13T17:46:33.471Z,15.80
2018-12-13T17:49:02.668Z,14.53
2018-12-13T17:51:32.374Z,14.43
2018-12-13T17:54:01.066Z,12.57
2018-12-13T17:56:30.210Z,14.63
2018-12-13T17:58:58.916Z,15.40
2018-12-13T18:01:27.861Z,14.53
2018-12-13T18:03:56.965Z,14.33
2018-12-13T18:06:25.925Z,13.67
2018-12-13T18:08:54.614Z,14.10
2018-12-13T18:11:24.427Z,14.23
2018-12-13T18:13:56.481Z,14.93
2018-12-13T18:16:26.545Z,14.13
2018-12-13T18:18:56.938Z,15.03
2018-12-13T18:21:26.000Z,15.03
2018-12-13T18:23:55.178Z,11.47
2018-12-13T18:26:24.395Z,13.83
2018-12-13T18:28:53.290Z,11.77
2018-12-13T18:31:23.190Z,12.03
2018-12-13T18:33:52.208Z,12.97
2018-12-13T18:36:21.221Z,13.73
2018-12-13T18:38:49.876Z,13.97
2018-12-13T18:41:18.536Z,14.80
2018-12-13T18:43:47.153Z,14.97
2018-12-13T18:46:16.202Z,15.87
2018-12-13T18:48:44.880Z,13.83
2018-12-13T18:51:13.861Z,13.90
2018-12-13T18:53:42.567Z,13.87
2018-12-13T18:56:11.809Z,13.57
2018-12-13T18:58:41.950Z,13.90
2018-12-13T19:01:11.149Z,11.90
2018-12-13T19:03:39.802Z,14.83
2018-12-13T19:06:08.417Z,10.67
2018-12-13T19:08:37.648Z,13.43
2018-12-13T19:11:07.194Z,12.97
2018-12-13T19:13:35.918Z,13.10
2018-12-13T19:16:04.904Z,13.23
2018-12-13T19:18:33.947Z,13.30
2018-12-13T19:21:02.638Z,11.67
2018-12-13T19:23:31.220Z,13.00
2018-12-13T19:26:00.326Z,14.10
2018-12-13T19:28:29.350Z,13.23
2018-12-13T19:30:58.023Z,13.70
2018-12-13T19:33:26.986Z,13.57
2018-12-13T19:35:56.285Z,14.53
2018-12-13T19:38:25.535Z,14.07
2018-12-13T19:40:54.518Z,13.70
2018-12-13T19:43:23.559Z,14.47
2018-12-13T19:45:52.790Z,16.27
2018-12-13T19:48:22.039Z,14.90
2018-12-13T19:50:51.410Z,14.90
2018-12-13T19:53:20.966Z,15.23
2018-12-13T19:55:49.777Z,15.37
2018-12-13T19:58:18.978Z,14.00
2018-12-13T20:00:48.073Z,12.50
2018-12-13T20:03:17.074Z,16.47
2018-12-13T20:05:47.544Z,14.33
2018-12-13T20:08:18.343Z,16.00
2018-12-13T20:10:47.327Z,16.60
2018-12-13T20:13:16.412Z,14.67
2018-12-13T20:15:45.671Z,15.13
2018-12-13T20:18:15.018Z,15.27
2018-12-13T20:20:44.036Z,15.57
2018-12-13T20:23:13.056Z,14.17
2018-12-13T20:25:42.427Z,8.93
2018-12-13T20:28:11.806Z,13.97
2018-12-13T20:30:40.911Z,13.23
2018-12-13T20:33:10.000Z,13.73
2018-12-13T20:35:39.056Z,15.10
2018-12-13T20:38:08.220Z,12.97
2018-12-13T20:40:37.293Z,14.07
2018-12-13T20:45:41.276Z,13.30
2018-12-13T20:48:10.009Z,14.10
2018-12-13T20:50:39.518Z,13.03
2018-12-13T20:53:08.267Z,12.23
2018-12-13T20:55:37.418Z,14.47
2018-12-13T20:58:06.088Z,13.73
2018-12-13T21:00:37.907Z,14.87
2018-12-13T21:03:06.593Z,12.87
2018-12-13T21:05:35.167Z,14.07
2018-12-13T21:08:08.946Z,14.13
2018-12-13T21:10:38.691Z,10.97
2018-12-13T21:13:07.811Z,14.33
2018-12-13T21:15:36.852Z,12.73
2018-12-13T21:18:05.560Z,12.57
2018-12-13T21:20:34.499Z,13.00
2018-12-13T21:23:03.398Z,10.77
2018-12-13T21:25:32.337Z,13.10
2018-12-13T21:28:01.039Z,12.90
2018-12-13T21:30:31.628Z,8.40
2018-12-13T21:33:00.680Z,13.47
2018-12-13T21:35:29.724Z,12.20
2018-12-13T21:37:59.038Z,12.93
2018-12-13T21:40:28.081Z,11.43
2018-12-13T21:42:57.068Z,12.03
2018-12-13T21:45:26.097Z,10.97
2018-12-13T21:47:54.786Z,12.53
2018-12-13T21:50:23.740Z,10.90
2018-12-13T21:52:58.068Z,11.37
2018-12-13T21:58:10.294Z,13.70
2018-12-13T22:00:38.972Z,13.10
2018-12-13T22:03:07.847Z,11.93
2018-12-13T22:05:36.461Z,14.57
2018-12-13T22:08:05.422Z,12.63
2018-12-13T22:10:34.548Z,14.63
2018-12-13T22:13:03.307Z,13.87
2018-12-13T22:15:32.348Z,12.80
2018-12-13T22:18:02.015Z,15.00
2018-12-13T22:20:30.985Z,15.17
2018-12-13T22:23:00.050Z,13.90
2018-12-13T22:25:29.257Z,13.83
2018-12-13T22:27:58.262Z,13.10
2018-12-13T22:30:26.937Z,13.30
2018-12-13T22:32:59.172Z,14.17
2018-12-13T22:35:28.516Z,13.87
2018-12-13T22:37:57.542Z,13.27
2018-12-13T22:40:26.536Z,12.20
2018-12-13T22:42:55.584Z,13.37
2018-12-13T22:45:24.581Z,13.53
2018-12-13T22:47:53.610Z,14.03
2018-12-13T22:50:22.611Z,13.20
2018-12-13T22:52:51.858Z,14.37
2018-12-13T22:55:20.950Z,15.43
2018-12-13T22:57:50.077Z,14.37
2018-12-13T23:00:24.064Z,12.50
2018-12-13T23:02:53.544Z,12.33
2018-12-13T23:05:22.565Z,9.57
2018-12-13T23:07:51.360Z,13.50
2018-12-13T23:10:20.309Z,13.27
2018-12-13T23:12:49.476Z,12.70
2018-12-13T23:15:18.441Z,10.63
2018-12-13T23:17:47.491Z,12.10
2018-12-13T23:20:16.533Z,12.07
2018-12-13T23:22:45.826Z,13.20
2018-12-13T23:25:14.866Z,12.93
2018-12-13T23:27:43.637Z,12.97
2018-12-13T23:30:13.323Z,12.93
2018-12-13T23:32:43.809Z,12.63
2018-12-13T23:35:12.788Z,12.00
2018-12-13T23:37:41.860Z,13.40
2018-12-13T23:40:10.927Z,13.13
2018-12-13T23:42:39.642Z,14.07
2018-12-13T23:45:09.359Z,15.37
2018-12-13T23:47:38.405Z,15.30
2018-12-13T23:50:07.665Z,12.03
2018-12-13T23:52:36.435Z,13.93
2018-12-13T23:55:06.248Z,16.10
2018-12-13T23:57:34.907Z,15.80
